createdAt,value
2022-10-21T00:00:10.451Z,959.77
2022-10-21T00:01:05.559Z,959.73
2022-10-21T00:02:00.537Z,959.67
2022-10-21T00:02:55.597Z,959.61
2022-10-21T00:03:50.669Z,959.56
2022-10-21T00:04:45.768Z,959.54
2022-10-21T00:05:40.849Z,959.56
2022-10-21T00:06:35.876Z,959.52
2022-10-21T00:07:30.987Z,959.54
2022-10-21T00:08:26.001Z,959.56
2022-10-21T00:09:23.084Z,959.63
2022-10-21T00:10:18.146Z,959.65
2022-10-21T00:11:13.205Z,959.63
2022-10-21T00:12:08.145Z,959.63
2022-10-21T00:13:03.138Z,959.59
2022-10-21T00:13:58.194Z,959.59
2022-10-21T00:14:56.342Z,959.59
2022-10-21T00:15:48.352Z,959.57
2022-10-21T00:16:43.615Z,959.54
2022-10-21T00:17:38.524Z,959.54
2022-10-21T00:18:33.605Z,959.54
2022-10-21T00:19:28.869Z,959.48
2022-10-21T00:20:24.783Z,959.36
2022-10-21T00:21:19.842Z,959.34
2022-10-21T00:22:15.074Z,959.38
2022-10-21T00:23:10.842Z,959.36
2022-10-21T00:24:06.090Z,959.38
2022-10-21T00:25:02.029Z,959.46
2022-10-21T00:25:57.093Z,959.50
2022-10-21T00:26:52.601Z,959.52
2022-10-21T00:27:48.105Z,959.52
2022-10-21T00:28:43.329Z,959.56
2022-10-21T00:29:38.533Z,959.52
2022-10-21T00:30:35.005Z,959.46
2022-10-21T00:31:30.225Z,959.44
2022-10-21T00:32:26.001Z,959.40
2022-10-21T00:33:21.222Z,959.42
2022-10-21T00:34:16.439Z,959.42
2022-10-21T00:35:12.232Z,959.44
2022-10-21T00:36:07.599Z,959.48
2022-10-21T00:37:03.489Z,959.48
2022-10-21T00:37:58.585Z,959.52
2022-10-21T00:38:53.853Z,959.52
2022-10-21T00:39:49.659Z,959.46
2022-10-21T00:40:44.873Z,959.38
2022-10-21T00:41:40.203Z,959.22
2022-10-21T00:42:38.559Z,959.28
2022-10-21T00:43:31.832Z,959.28
2022-10-21T00:44:27.640Z,959.20
2022-10-21T00:45:22.846Z,959.20
2022-10-21T00:46:18.349Z,959.34
2022-10-21T00:47:14.004Z,959.34
2022-10-21T00:48:09.231Z,959.30
2022-10-21T00:49:05.059Z,959.28
2022-10-21T00:50:00.268Z,959.26
2022-10-21T00:50:55.743Z,959.24
2022-10-21T00:51:51.417Z,959.20
2022-10-21T00:52:46.756Z,959.18
2022-10-21T00:53:41.991Z,959.14
2022-10-21T00:54:38.335Z,959.16
2022-10-21T00:55:33.582Z,959.18
2022-10-21T00:56:29.372Z,959.16
2022-10-21T00:57:24.571Z,959.14
2022-10-21T00:58:19.839Z,959.14
2022-10-21T00:59:15.622Z,959.12
2022-10-21T01:00:10.869Z,959.10
2022-10-21T01:01:06.659Z,959.08
2022-10-21T01:02:01.846Z,959.10
2022-10-21T01:02:57.233Z,959.12
2022-10-21T01:03:53.047Z,959.14
2022-10-21T01:04:48.359Z,959.14
2022-10-21T01:05:43.637Z,959.14
2022-10-21T01:06:38.853Z,959.18
2022-10-21T01:07:37.544Z,959.20
2022-10-21T01:08:31.241Z,959.24
2022-10-21T01:09:25.116Z,959.22
2022-10-21T01:10:21.830Z,959.16
2022-10-21T01:11:17.184Z,959.10
2022-10-21T01:12:12.985Z,959.08
2022-10-21T01:13:08.375Z,959.06
2022-10-21T01:14:03.583Z,959.16
2022-10-21T01:14:59.275Z,959.22
2022-10-21T01:15:54.467Z,959.22
2022-10-21T01:16:49.685Z,959.26
2022-10-21T01:17:46.087Z,959.28
2022-10-21T01:18:41.358Z,959.22
2022-10-21T01:19:37.132Z,959.18
2022-10-21T01:20:32.335Z,959.18
2022-10-21T01:21:27.562Z,959.12
2022-10-21T01:22:23.343Z,959.02
2022-10-21T01:23:18.557Z,959.08
2022-10-21T01:24:13.789Z,959.04
2022-10-21T01:25:08.998Z,958.95
2022-10-21T01:26:04.216Z,959.02
2022-10-21T01:26:59.453Z,959.04
2022-10-21T01:27:54.811Z,959.02
2022-10-21T01:28:51.157Z,958.91
2022-10-21T01:29:46.567Z,959.02
2022-10-21T01:30:41.775Z,959.02
2022-10-21T01:31:37.429Z,959.04
2022-10-21T01:32:32.638Z,958.89
2022-10-21T01:33:27.891Z,958.89
2022-10-21T01:34:23.229Z,958.85
2022-10-21T01:35:18.322Z,958.87
2022-10-21T01:36:13.556Z,958.85
2022-10-21T01:37:09.868Z,958.81
2022-10-21T01:38:05.067Z,958.77
2022-10-21T01:39:00.316Z,958.75
2022-10-21T01:39:59.454Z,958.77
2022-10-21T01:40:54.672Z,958.81
2022-10-21T01:41:49.916Z,958.81
2022-10-21T01:42:45.121Z,958.83
2022-10-21T01:43:40.225Z,958.79
2022-10-21T01:44:35.203Z,958.89
2022-10-21T01:45:30.296Z,958.91
2022-10-21T01:46:25.363Z,959.02
2022-10-21T01:47:20.463Z,958.93
2022-10-21T01:48:15.523Z,959.02
2022-10-21T01:49:10.764Z,958.95
2022-10-21T01:50:05.701Z,958.95
2022-10-21T01:51:00.795Z,959.02
2022-10-21T01:51:55.877Z,959.04
2022-10-21T01:52:50.953Z,959.02
2022-10-21T01:53:46.066Z,959.02
2022-10-21T01:54:41.152Z,958.95
2022-10-21T01:55:36.212Z,958.93
2022-10-21T01:56:31.296Z,958.93
2022-10-21T01:57:26.561Z,958.95
2022-10-21T01:58:21.369Z,958.89
2022-10-21T01:59:16.477Z,958.85
2022-10-21T02:00:11.584Z,958.85
2022-10-21T02:01:06.823Z,958.81
2022-10-21T02:02:01.903Z,958.79
2022-10-21T02:02:57.404Z,958.73
2022-10-21T02:03:52.513Z,958.67
2022-10-21T02:04:47.716Z,958.65
2022-10-21T02:05:42.920Z,958.63
2022-10-21T02:06:38.163Z,958.65
2022-10-21T02:07:33.520Z,958.67
2022-10-21T02:08:28.821Z,958.65
2022-10-21T02:09:23.946Z,958.67
2022-10-21T02:10:19.152Z,958.65
2022-10-21T02:11:14.385Z,958.63
2022-10-21T02:12:09.466Z,958.65
2022-10-21T02:13:04.544Z,958.71
2022-10-21T02:13:59.527Z,958.71
2022-10-21T02:14:54.710Z,958.69
2022-10-21T02:15:49.946Z,958.63
2022-10-21T02:16:45.021Z,958.59
2022-10-21T02:17:40.131Z,958.53
2022-10-21T02:18:35.216Z,958.46
2022-10-21T02:20:25.454Z,958.38
2022-10-21T02:21:20.394Z,958.34
2022-10-21T02:22:15.462Z,958.36
2022-10-21T02:23:10.563Z,958.38
2022-10-21T02:24:05.641Z,958.36
2022-10-21T02:25:00.711Z,958.32
2022-10-21T02:25:55.834Z,958.32
2022-10-21T02:26:50.939Z,958.30
2022-10-21T02:27:46.023Z,958.34
2022-10-21T02:29:36.290Z,958.28
2022-10-21T02:30:31.280Z,958.24
2022-10-21T02:31:30.609Z,958.22
2022-10-21T02:32:25.552Z,958.24
2022-10-21T02:33:20.539Z,958.24
2022-10-21T02:34:15.645Z,958.16
2022-10-21T02:35:10.624Z,958.12
2022-10-21T02:36:05.702Z,958.12
2022-10-21T02:37:00.680Z,958.08
2022-10-21T02:37:55.782Z,958.02
2022-10-21T02:38:51.014Z,957.99
2022-10-21T02:39:46.096Z,958.01
2022-10-21T02:40:41.371Z,957.99
2022-10-21T02:41:36.332Z,958.06
2022-10-21T02:42:31.566Z,958.12
2022-10-21T02:43:26.788Z,958.12
2022-10-21T02:44:21.994Z,958.14
2022-10-21T02:45:17.813Z,958.10
2022-10-21T02:46:13.097Z,958.12
2022-10-21T02:47:09.029Z,958.08
2022-10-21T02:48:04.131Z,958.02
2022-10-21T02:48:59.615Z,957.97
2022-10-21T02:49:55.424Z,957.97
2022-10-21T02:50:50.653Z,957.93
2022-10-21T02:51:46.016Z,957.93
2022-10-21T02:52:42.348Z,957.93
2022-10-21T02:53:37.562Z,957.95
2022-10-21T02:54:33.354Z,957.97
2022-10-21T02:55:28.572Z,958.01
2022-10-21T02:56:24.136Z,958.01
2022-10-21T02:57:19.765Z,957.99
2022-10-21T02:58:15.112Z,957.97
2022-10-21T02:59:10.906Z,957.95
2022-10-21T03:00:06.115Z,957.91
2022-10-21T03:01:01.860Z,957.93
2022-10-21T03:01:57.175Z,957.93
2022-10-21T03:02:52.400Z,957.89
2022-10-21T03:03:47.610Z,957.87
2022-10-21T03:04:43.939Z,957.85
2022-10-21T03:05:39.305Z,957.85
2022-10-21T03:06:35.102Z,957.85
2022-10-21T03:07:30.307Z,957.83
2022-10-21T03:08:25.555Z,957.83
2022-10-21T03:09:21.320Z,957.81
2022-10-21T03:10:16.627Z,957.83
2022-10-21T03:11:12.446Z,957.81
2022-10-21T03:12:07.647Z,957.79
2022-10-21T03:13:03.036Z,957.79
2022-10-21T03:13:58.822Z,957.81
2022-10-21T03:14:54.051Z,957.81
2022-10-21T03:15:49.248Z,957.81
2022-10-21T03:16:45.790Z,957.87
2022-10-21T03:17:41.292Z,957.83
2022-10-21T03:18:36.836Z,957.87
2022-10-21T03:19:32.049Z,957.85
2022-10-21T03:20:27.282Z,957.85
2022-10-21T03:21:23.093Z,957.85
2022-10-21T03:22:18.362Z,957.87
2022-10-21T03:23:14.284Z,957.89
2022-10-21T03:24:15.441Z,957.87
2022-10-21T03:25:05.912Z,957.89
2022-10-21T03:26:00.771Z,957.85
2022-10-21T03:26:55.983Z,957.79
2022-10-21T03:27:51.529Z,957.79
2022-10-21T03:28:46.641Z,957.79
2022-10-21T03:29:43.221Z,957.75
2022-10-21T03:30:38.576Z,957.73
2022-10-21T03:31:33.801Z,957.75
2022-10-21T03:32:29.602Z,957.73
2022-10-21T03:33:25.144Z,957.71
2022-10-21T03:34:20.068Z,957.69
2022-10-21T03:35:16.822Z,957.71
2022-10-21T03:36:12.189Z,957.71
2022-10-21T03:37:07.959Z,957.73
2022-10-21T03:38:03.185Z,957.77
2022-10-21T03:38:58.443Z,957.73
2022-10-21T03:39:54.239Z,957.73
2022-10-21T03:40:49.467Z,957.71
2022-10-21T03:41:45.375Z,957.69
2022-10-21T03:42:40.980Z,957.69
2022-10-21T03:43:35.945Z,957.65
2022-10-21T03:44:31.925Z,957.63
2022-10-21T03:45:26.990Z,957.65
2022-10-21T03:46:22.214Z,957.71
2022-10-21T03:47:17.455Z,957.73
2022-10-21T03:48:12.678Z,957.79
2022-10-21T03:49:14.641Z,957.85
2022-10-21T03:50:06.499Z,957.87
2022-10-21T03:50:58.657Z,957.83
2022-10-21T03:51:54.443Z,957.87
2022-10-21T03:52:49.669Z,957.83
2022-10-21T03:53:45.032Z,957.85
2022-10-21T03:54:40.137Z,957.83
2022-10-21T03:55:35.238Z,957.77
2022-10-21T03:56:30.219Z,957.71
2022-10-21T03:57:25.322Z,957.71
2022-10-21T03:58:20.405Z,957.73
2022-10-21T03:59:15.511Z,957.69
2022-10-21T04:01:05.801Z,957.63
2022-10-21T04:02:00.905Z,957.55
2022-10-21T04:02:55.991Z,957.53
2022-10-21T04:03:51.121Z,957.47
2022-10-21T04:04:46.219Z,957.44
2022-10-21T04:05:41.388Z,957.38
2022-10-21T04:06:36.502Z,957.38
2022-10-21T04:07:31.608Z,957.34
2022-10-21T04:08:26.686Z,957.34
2022-10-21T04:09:21.762Z,957.34
2022-10-21T04:10:16.749Z,957.32
2022-10-21T04:11:11.829Z,957.32
2022-10-21T04:12:06.917Z,957.32
2022-10-21T04:13:02.050Z,957.32
2022-10-21T04:13:57.151Z,957.34
2022-10-21T04:14:52.224Z,957.38
2022-10-21T04:15:47.232Z,957.34
2022-10-21T04:16:42.344Z,957.30
2022-10-21T04:17:37.578Z,957.26
2022-10-21T04:18:32.926Z,957.20
2022-10-21T04:19:28.127Z,957.18
2022-10-21T04:20:23.380Z,957.20
2022-10-21T04:21:18.627Z,957.22
2022-10-21T04:22:13.870Z,957.26
2022-10-21T04:23:09.101Z,957.26
2022-10-21T04:24:04.467Z,957.24
2022-10-21T04:25:03.839Z,957.26
2022-10-21T04:25:55.751Z,957.26
2022-10-21T04:26:51.014Z,957.24
2022-10-21T04:27:46.253Z,957.24
2022-10-21T04:28:41.502Z,957.24
2022-10-21T04:29:36.727Z,957.30
2022-10-21T04:30:32.010Z,957.30
2022-10-21T04:31:31.264Z,957.30
2022-10-21T04:32:22.617Z,957.32
2022-10-21T04:33:17.724Z,957.30
2022-10-21T04:34:12.936Z,957.34
2022-10-21T04:35:08.189Z,957.32
2022-10-21T04:36:03.418Z,957.32
2022-10-21T04:37:01.161Z,957.32
2022-10-21T04:37:55.081Z,957.34
2022-10-21T04:38:49.337Z,957.34
2022-10-21T04:39:44.577Z,957.34
2022-10-21T04:40:39.983Z,957.36
2022-10-21T04:41:35.199Z,957.36
2022-10-21T04:42:30.519Z,957.38
2022-10-21T04:43:25.759Z,957.40
2022-10-21T04:44:21.084Z,957.40
2022-10-21T04:45:16.309Z,957.42
2022-10-21T04:46:12.107Z,957.42
2022-10-21T04:47:06.925Z,957.42
2022-10-21T04:48:02.595Z,957.40
2022-10-21T04:48:57.679Z,957.36
2022-10-21T04:49:52.792Z,957.32
2022-10-21T04:50:48.013Z,957.30
2022-10-21T04:51:43.339Z,957.26
2022-10-21T04:52:38.584Z,957.26
2022-10-21T04:53:33.482Z,957.24
2022-10-21T04:54:28.503Z,957.24
2022-10-21T04:55:23.601Z,957.24
2022-10-21T04:56:18.705Z,957.24
2022-10-21T04:57:13.694Z,957.26
2022-10-21T04:58:08.833Z,957.18
2022-10-21T04:59:06.113Z,957.18
2022-10-21T05:00:01.210Z,957.18
2022-10-21T05:00:56.358Z,957.18
2022-10-21T05:01:51.388Z,957.18
2022-10-21T05:02:46.369Z,957.20
2022-10-21T05:03:41.345Z,957.22
2022-10-21T05:04:36.416Z,957.20
2022-10-21T05:05:31.513Z,957.20
2022-10-21T05:06:26.506Z,957.20
2022-10-21T05:07:21.661Z,957.14
2022-10-21T05:08:16.624Z,957.14
2022-10-21T05:09:11.657Z,957.10
2022-10-21T05:10:06.643Z,957.10
2022-10-21T05:11:01.647Z,957.08
2022-10-21T05:11:56.756Z,957.06
2022-10-21T05:12:51.978Z,957.04
2022-10-21T05:13:49.240Z,957.04
2022-10-21T05:14:44.355Z,957.00
2022-10-21T05:15:39.421Z,957.00
2022-10-21T05:16:34.495Z,956.97
2022-10-21T05:17:29.556Z,956.95
2022-10-21T05:18:24.614Z,956.95
2022-10-21T05:19:19.747Z,956.91
2022-10-21T05:20:14.745Z,956.91
2022-10-21T05:21:09.844Z,956.91
2022-10-21T05:22:05.053Z,956.91
2022-10-21T05:22:59.888Z,956.89
2022-10-21T05:23:54.891Z,956.87
2022-10-21T05:24:50.691Z,956.87
2022-10-21T05:25:45.945Z,956.83
2022-10-21T05:26:41.250Z,956.77
2022-10-21T05:27:37.073Z,956.79
2022-10-21T05:28:32.367Z,956.79
2022-10-21T05:29:28.137Z,956.79
2022-10-21T05:30:23.384Z,956.79
2022-10-21T05:31:19.063Z,956.77
2022-10-21T05:32:14.632Z,956.79
2022-10-21T05:33:09.921Z,956.79
2022-10-21T05:34:05.138Z,956.81
2022-10-21T05:35:01.643Z,956.83
2022-10-21T05:35:57.070Z,956.81
2022-10-21T05:36:52.845Z,956.81
2022-10-21T05:37:48.171Z,956.79
2022-10-21T05:38:43.467Z,956.75
2022-10-21T05:39:39.238Z,956.71
2022-10-21T05:40:34.565Z,956.69
2022-10-21T05:41:30.399Z,956.67
2022-10-21T05:42:25.762Z,956.67
2022-10-21T05:43:21.096Z,956.69
2022-10-21T05:44:16.828Z,956.69
2022-10-21T05:45:12.119Z,956.71
2022-10-21T05:46:07.551Z,956.71
2022-10-21T05:47:03.825Z,956.73
2022-10-21T05:47:59.114Z,956.75
2022-10-21T05:48:54.989Z,956.75
2022-10-21T05:49:50.249Z,956.75
2022-10-21T05:50:45.841Z,956.79
2022-10-21T05:51:41.438Z,956.81
2022-10-21T05:52:37.006Z,956.75
2022-10-21T05:53:32.485Z,956.73
2022-10-21T05:54:27.804Z,956.67
2022-10-21T05:55:23.244Z,956.63
2022-10-21T05:56:18.847Z,956.59
2022-10-21T05:57:14.119Z,956.57
2022-10-21T05:58:09.583Z,956.53
2022-10-21T05:59:07.933Z,956.51
2022-10-21T06:00:01.150Z,956.51
2022-10-21T06:00:56.959Z,956.49
2022-10-21T06:01:52.320Z,956.51
2022-10-21T06:02:47.680Z,956.53
2022-10-21T06:03:43.446Z,956.55
2022-10-21T06:04:39.011Z,956.57
2022-10-21T06:05:34.519Z,956.63
2022-10-21T06:06:29.909Z,956.61
2022-10-21T06:07:25.318Z,956.59
2022-10-21T06:08:21.096Z,956.61
2022-10-21T06:09:16.609Z,956.59
2022-10-21T06:10:11.936Z,956.57
2022-10-21T06:11:07.329Z,956.55
2022-10-21T06:12:04.147Z,956.53
2022-10-21T06:12:58.466Z,956.49
2022-10-21T06:13:53.998Z,956.45
2022-10-21T06:14:49.599Z,956.34
2022-10-21T06:15:48.778Z,956.32
2022-10-21T06:16:41.755Z,956.32
2022-10-21T06:17:36.420Z,956.32
2022-10-21T06:18:31.717Z,956.34
2022-10-21T06:19:27.826Z,956.32
2022-10-21T06:20:23.236Z,956.30
2022-10-21T06:21:18.738Z,956.22
2022-10-21T06:22:15.058Z,956.12
2022-10-21T06:23:10.513Z,956.10
2022-10-21T06:24:06.383Z,956.06
2022-10-21T06:25:01.914Z,956.06
2022-10-21T06:25:57.357Z,956.06
2022-10-21T06:26:53.211Z,956.04
2022-10-21T06:27:48.536Z,956.04
2022-10-21T06:28:44.007Z,956.10
2022-10-21T06:29:39.504Z,956.12
2022-10-21T06:30:35.132Z,956.18
2022-10-21T06:31:30.173Z,956.20
2022-10-21T06:32:25.267Z,956.20
2022-10-21T06:33:24.649Z,956.20
2022-10-21T06:35:10.452Z,956.22
2022-10-21T06:36:05.504Z,956.22
2022-10-21T06:37:00.590Z,956.26
2022-10-21T06:37:55.888Z,956.36
2022-10-21T06:38:51.899Z,956.47
2022-10-21T06:39:47.158Z,956.51
2022-10-21T06:40:42.556Z,956.57
2022-10-21T06:41:38.836Z,956.59
2022-10-21T06:42:34.278Z,956.65
2022-10-21T06:43:30.119Z,956.67
2022-10-21T06:44:25.625Z,956.65
2022-10-21T06:45:21.096Z,956.67
2022-10-21T06:46:16.880Z,956.67
2022-10-21T06:47:12.316Z,956.67
2022-10-21T06:48:08.209Z,956.69
2022-10-21T06:49:03.544Z,956.67
2022-10-21T06:49:59.048Z,956.73
2022-10-21T06:50:54.911Z,956.71
2022-10-21T06:51:50.271Z,956.73
2022-10-21T06:52:45.730Z,956.71
2022-10-21T06:53:42.019Z,956.73
2022-10-21T06:54:37.464Z,956.71
2022-10-21T06:55:33.344Z,956.73
2022-10-21T06:56:28.832Z,956.75
2022-10-21T06:57:24.287Z,956.75
2022-10-21T06:58:20.048Z,956.77
2022-10-21T06:59:15.525Z,956.79
2022-10-21T07:00:11.591Z,956.83
2022-10-21T07:01:16.441Z,956.89
2022-10-21T07:02:03.312Z,956.91
2022-10-21T07:02:58.240Z,956.91
2022-10-21T07:03:53.697Z,956.91
2022-10-21T07:04:49.174Z,956.91
2022-10-21T07:05:45.638Z,956.91
2022-10-21T07:06:40.945Z,956.91
2022-10-21T07:07:37.053Z,956.87
2022-10-21T07:08:46.585Z,956.83
2022-10-21T07:09:29.295Z,956.83
2022-10-21T07:10:23.678Z,956.79
2022-10-21T07:11:19.735Z,956.79
2022-10-21T07:12:15.139Z,956.75
2022-10-21T07:13:10.610Z,956.69
2022-10-21T07:14:06.404Z,956.69
2022-10-21T07:15:01.745Z,956.65
2022-10-21T07:15:57.653Z,956.67
2022-10-21T07:16:53.086Z,956.61
2022-10-21T07:17:48.600Z,956.65
2022-10-21T07:18:44.370Z,956.69
2022-10-21T07:19:39.803Z,956.63
2022-10-21T07:20:35.335Z,956.59
2022-10-21T07:21:31.422Z,956.59
2022-10-21T07:22:26.912Z,956.57
2022-10-21T07:23:22.827Z,956.59
2022-10-21T07:24:22.378Z,956.57
2022-10-21T07:25:13.713Z,956.59
2022-10-21T07:26:09.182Z,956.59
2022-10-21T07:27:04.917Z,956.61
2022-10-21T07:28:00.510Z,956.59
2022-10-21T07:28:55.979Z,956.57
2022-10-21T07:29:51.759Z,956.57
2022-10-21T07:30:47.285Z,956.53
2022-10-21T07:31:43.015Z,956.51
2022-10-21T07:32:38.367Z,956.47
2022-10-21T07:33:33.830Z,956.45
2022-10-21T07:34:29.603Z,956.47
2022-10-21T07:35:25.063Z,956.47
2022-10-21T07:36:20.687Z,956.49
2022-10-21T07:37:16.872Z,956.49
2022-10-21T07:38:12.319Z,956.53
2022-10-21T07:39:07.811Z,956.57
2022-10-21T07:40:03.055Z,956.57
2022-10-21T07:40:58.090Z,956.65
2022-10-21T07:41:53.196Z,956.69
2022-10-21T07:42:48.252Z,956.81
2022-10-21T07:43:43.283Z,956.87
2022-10-21T07:44:38.347Z,956.99
2022-10-21T07:45:33.434Z,957.08
2022-10-21T07:46:28.386Z,957.18
2022-10-21T07:47:23.474Z,957.26
2022-10-21T07:48:18.551Z,957.34
2022-10-21T07:49:13.615Z,957.42
2022-10-21T07:50:08.865Z,957.46
2022-10-21T07:51:03.903Z,957.51
2022-10-21T07:51:58.982Z,957.51
2022-10-21T07:53:10.916Z,957.51
2022-10-21T07:53:53.905Z,957.51
2022-10-21T07:54:49.002Z,957.53
2022-10-21T07:55:44.532Z,957.51
2022-10-21T07:56:39.790Z,957.51
2022-10-21T07:57:34.803Z,957.49
2022-10-21T07:58:29.892Z,957.51
2022-10-21T07:59:25.013Z,957.55
2022-10-21T08:00:20.193Z,957.55
2022-10-21T08:01:15.309Z,957.57
2022-10-21T08:02:10.352Z,957.59
2022-10-21T08:03:05.448Z,957.63
2022-10-21T08:04:00.615Z,957.63
2022-10-21T08:04:55.440Z,957.67
2022-10-21T08:05:50.559Z,957.69
2022-10-21T08:06:45.684Z,957.69
2022-10-21T08:07:41.884Z,957.75
2022-10-21T08:08:37.488Z,957.81
2022-10-21T08:09:32.919Z,957.85
2022-10-21T08:10:31.474Z,957.91
2022-10-21T08:11:27.148Z,957.95
2022-10-21T08:12:22.697Z,957.99
2022-10-21T08:13:18.312Z,958.02
2022-10-21T08:14:13.738Z,958.06
2022-10-21T08:15:08.449Z,958.08
2022-10-21T08:16:03.554Z,958.14
2022-10-21T08:17:03.819Z,958.20
2022-10-21T08:17:59.188Z,958.22
2022-10-21T08:18:54.762Z,958.22
2022-10-21T08:19:50.163Z,958.24
2022-10-21T08:20:45.634Z,958.26
2022-10-21T08:21:41.054Z,958.30
2022-10-21T08:22:36.590Z,958.32
2022-10-21T08:23:32.132Z,958.32
2022-10-21T08:24:27.546Z,958.36
2022-10-21T08:25:22.940Z,958.36
2022-10-21T08:26:18.337Z,958.38
2022-10-21T08:27:13.985Z,958.38
2022-10-21T08:28:09.503Z,958.40
2022-10-21T08:29:05.170Z,958.38
2022-10-21T08:30:03.909Z,958.40
2022-10-21T08:30:59.294Z,958.34
2022-10-21T08:31:54.788Z,958.36
2022-10-21T08:32:50.340Z,958.34
2022-10-21T08:33:45.969Z,958.32
2022-10-21T08:34:41.331Z,958.32
2022-10-21T08:35:37.949Z,958.34
2022-10-21T08:36:33.459Z,958.26
2022-10-21T08:37:28.949Z,958.20
2022-10-21T08:38:24.629Z,958.12
2022-10-21T08:39:19.890Z,958.08
2022-10-21T08:40:14.986Z,958.02
2022-10-21T08:41:09.975Z,957.95
2022-10-21T08:42:05.072Z,957.91
2022-10-21T08:43:00.195Z,957.73
2022-10-21T08:43:55.218Z,957.59
2022-10-21T08:44:50.226Z,957.44
2022-10-21T08:45:45.216Z,957.36
2022-10-21T08:46:40.287Z,957.30
2022-10-21T08:47:35.550Z,957.24
2022-10-21T08:48:30.425Z,957.22
2022-10-21T08:49:28.543Z,957.22
2022-10-21T08:50:21.637Z,957.16
2022-10-21T08:51:15.677Z,957.14
2022-10-21T08:52:10.662Z,957.12
2022-10-21T08:53:07.972Z,957.12
2022-10-21T08:54:03.346Z,957.14
2022-10-21T08:54:58.912Z,957.12
2022-10-21T08:55:54.312Z,957.16
2022-10-21T08:56:49.949Z,957.22
2022-10-21T08:57:45.452Z,957.26
2022-10-21T08:58:40.935Z,957.30
2022-10-21T08:59:36.577Z,957.38
2022-10-21T09:00:32.097Z,957.36
2022-10-21T09:01:27.623Z,957.32
2022-10-21T09:02:23.960Z,957.32
2022-10-21T09:03:19.712Z,957.30
2022-10-21T09:04:15.029Z,957.32
2022-10-21T09:05:10.383Z,957.34
2022-10-21T09:06:05.874Z,957.30
2022-10-21T09:07:01.323Z,957.22
2022-10-21T09:07:57.789Z,957.16
2022-10-21T09:08:56.434Z,957.16
2022-10-21T09:09:48.953Z,957.14
2022-10-21T09:10:44.468Z,957.10
2022-10-21T09:11:39.881Z,957.08
2022-10-21T09:12:34.861Z,957.02
2022-10-21T09:13:29.935Z,957.06
2022-10-21T09:14:25.110Z,957.08
2022-10-21T09:15:20.295Z,957.14
2022-10-21T09:16:15.256Z,957.16
2022-10-21T09:17:10.410Z,957.18
2022-10-21T09:18:05.426Z,957.18
2022-10-21T09:19:00.537Z,957.18
2022-10-21T09:19:55.550Z,957.18
2022-10-21T09:20:55.928Z,957.18
2022-10-21T09:21:46.692Z,957.16
2022-10-21T09:22:40.758Z,957.12
2022-10-21T09:23:35.726Z,957.08
2022-10-21T09:24:30.868Z,957.08
2022-10-21T09:25:28.424Z,957.12
2022-10-21T09:26:26.579Z,957.12
2022-10-21T09:27:27.006Z,957.12
2022-10-21T09:28:16.067Z,957.12
2022-10-21T09:29:10.620Z,957.14
2022-10-21T09:30:05.989Z,957.14
2022-10-21T09:31:01.548Z,957.12
2022-10-21T09:32:02.037Z,957.10
2022-10-21T09:32:54.048Z,957.06
2022-10-21T09:33:48.449Z,957.10
2022-10-21T09:34:43.981Z,957.18
2022-10-21T09:35:39.630Z,957.26
2022-10-21T09:36:35.388Z,957.28
2022-10-21T09:37:33.227Z,957.30
2022-10-21T09:38:26.127Z,957.32
2022-10-21T09:39:21.634Z,957.34
2022-10-21T09:40:17.250Z,957.30
2022-10-21T09:41:12.856Z,957.22
2022-10-21T09:42:13.465Z,957.22
2022-10-21T09:43:05.305Z,957.32
2022-10-21T09:43:59.871Z,957.49
2022-10-21T09:44:55.406Z,957.67
2022-10-21T09:45:51.016Z,957.71
2022-10-21T09:46:46.571Z,957.65
2022-10-21T09:47:42.102Z,957.63
2022-10-21T09:48:50.240Z,957.49
2022-10-21T09:50:05.400Z,957.53
2022-10-21T09:50:29.693Z,957.67
2022-10-21T09:51:24.007Z,957.93
2022-10-21T09:52:19.103Z,957.93
2022-10-21T09:53:14.214Z,957.93
2022-10-21T09:54:09.353Z,957.79
2022-10-21T09:55:05.655Z,957.59
2022-10-21T09:56:00.774Z,957.63
2022-10-21T09:56:55.918Z,957.85
2022-10-21T09:57:51.179Z,957.89
2022-10-21T09:58:46.122Z,957.85
2022-10-21T09:59:41.261Z,957.91
2022-10-21T10:00:36.371Z,958.04
2022-10-21T10:01:31.368Z,958.28
2022-10-21T10:02:26.459Z,958.34
2022-10-21T10:03:21.540Z,958.28
2022-10-21T10:04:16.554Z,958.10
2022-10-21T10:05:12.610Z,958.14
2022-10-21T10:06:08.223Z,958.26
2022-10-21T10:07:03.449Z,958.48
2022-10-21T10:07:59.048Z,958.36
2022-10-21T10:08:54.521Z,958.06
2022-10-21T10:09:49.919Z,957.91
2022-10-21T10:10:45.431Z,958.01
2022-10-21T10:11:40.851Z,958.06
2022-10-21T10:12:36.750Z,958.22
2022-10-21T10:13:31.921Z,958.12
2022-10-21T10:14:27.198Z,957.97
2022-10-21T10:15:22.717Z,957.91
2022-10-21T10:16:18.233Z,957.89
2022-10-21T10:17:13.614Z,957.89
2022-10-21T10:18:12.909Z,957.95
2022-10-21T10:19:08.415Z,957.97
2022-10-21T10:20:04.074Z,957.95
2022-10-21T10:20:59.645Z,957.93
2022-10-21T10:21:55.264Z,957.91
2022-10-21T10:22:50.743Z,957.87
2022-10-21T10:23:46.383Z,957.87
2022-10-21T10:24:42.880Z,957.87
2022-10-21T10:25:38.327Z,957.97
2022-10-21T10:26:33.788Z,958.01
2022-10-21T10:27:29.367Z,958.04
2022-10-21T10:28:24.798Z,958.01
2022-10-21T10:29:20.103Z,958.02
2022-10-21T10:30:15.734Z,958.06
2022-10-21T10:31:10.901Z,958.06
2022-10-21T10:32:06.318Z,958.02
2022-10-21T10:33:01.838Z,957.97
2022-10-21T10:33:58.941Z,957.97
2022-10-21T10:34:52.750Z,958.01
2022-10-21T10:35:48.133Z,958.04
2022-10-21T10:36:43.582Z,958.04
2022-10-21T10:37:39.175Z,958.06
2022-10-21T10:38:34.500Z,958.04
2022-10-21T10:39:29.957Z,958.10
2022-10-21T10:40:29.327Z,958.06
2022-10-21T10:41:24.999Z,958.10
2022-10-21T10:42:20.185Z,958.12
2022-10-21T10:43:15.730Z,958.18
2022-10-21T10:44:11.060Z,958.18
2022-10-21T10:45:06.657Z,958.16
2022-10-21T10:46:02.299Z,958.16
2022-10-21T10:46:57.607Z,958.14
2022-10-21T10:47:53.109Z,958.14
2022-10-21T10:48:48.414Z,958.16
2022-10-21T10:49:43.817Z,958.16
2022-10-21T10:50:39.321Z,958.18
2022-10-21T10:51:34.879Z,958.20
2022-10-21T10:52:30.454Z,958.16
2022-10-21T10:53:26.067Z,958.20
2022-10-21T10:54:21.071Z,958.24
2022-10-21T10:55:16.164Z,958.22
2022-10-21T10:56:11.299Z,958.20
2022-10-21T10:57:06.427Z,958.18
2022-10-21T10:58:11.469Z,958.20
2022-10-21T10:58:57.658Z,958.18
2022-10-21T10:59:51.652Z,958.20
2022-10-21T11:00:46.710Z,958.12
2022-10-21T11:01:41.811Z,958.16
2022-10-21T11:02:36.909Z,958.14
2022-10-21T11:03:32.080Z,958.16
2022-10-21T11:04:27.225Z,958.20
2022-10-21T11:05:22.291Z,958.24
2022-10-21T11:06:17.355Z,958.22
2022-10-21T11:07:12.386Z,958.22
2022-10-21T11:08:07.883Z,958.18
2022-10-21T11:09:03.397Z,958.16
2022-10-21T11:09:58.712Z,958.20
2022-10-21T11:10:54.336Z,958.18
2022-10-21T11:11:49.721Z,958.18
2022-10-21T11:12:46.320Z,958.16
2022-10-21T11:13:42.365Z,958.18
2022-10-21T11:14:37.468Z,958.16
2022-10-21T11:15:32.829Z,958.14
2022-10-21T11:16:31.418Z,958.12
2022-10-21T11:17:26.776Z,958.16
2022-10-21T11:18:24.987Z,958.14
2022-10-21T11:19:17.097Z,958.14
2022-10-21T11:20:12.287Z,958.18
2022-10-21T11:21:07.674Z,958.20
2022-10-21T11:22:06.058Z,958.22
2022-10-21T11:22:58.783Z,958.24
2022-10-21T11:23:56.950Z,958.20
2022-10-21T11:24:49.682Z,958.22
2022-10-21T11:25:45.139Z,958.24
2022-10-21T11:26:40.717Z,958.18
2022-10-21T11:27:36.447Z,958.22
2022-10-21T11:28:31.852Z,958.18
2022-10-21T11:29:27.340Z,958.16
2022-10-21T11:30:22.567Z,958.16
2022-10-21T11:31:17.579Z,958.14
2022-10-21T11:32:12.781Z,958.16
2022-10-21T11:33:07.741Z,958.16
2022-10-21T11:34:02.936Z,958.14
2022-10-21T11:34:58.051Z,958.12